Pagrindinis puslapis
METAR-TAF:

METAR-TAF

Oro uostai :

Marsa Alam, Egiptas

platuma: 25-33-25N, ilguma: 34-35-01E, Aukštis: 77 m

Dabartinis oras

Ataskaita buvo paskelbta 46 minutes, ne 11:00 UTC
Vėjas 15 kt iš Šiaurės/Šiaurės Rytų
Temperatūra 31°C
Drėgmė 52%
Slėgis 1012 hPa
Matomumas 10 km arba daugiau
nėra debesų žemiau 1500 m ir nėra kamuolinių lietaus debesų

METAR: HEMA 141100Z 02015KT CAVOK 31/20 Q1012 NOSIG

Laikas: 13:46 (11:46 UTC)

Prognozė

Ataskaita buvo paskelbta 46 minutes, ne 11:00 UTC
Prognozė galioja nuo 14 metu 12 UTC su 15 metu 18 UTC
Vėjas 17 kt iš Šiaurės
Matomumas 10 km arba daugiau
Išsisklaidę debesys ne aukštis 2000 ft
Laikinai
nuo 14 metu 18 UTC su 15 metu 06 UTC
Matomumas: 6000 m
Su prošvaistėmis ne aukštis 3000 ft
lietus
Laikinai
nuo 14 metu 23 UTC su 15 metu 03 UTC
Matomumas: 4000 m
Mažai debesys ne aukštis 1700 ft, Liūtiniai kamuoliniai debesys.
lietus

TAF: HEMA 141100Z 1412/1518 36017KT 9999 SCT020 TEMPO 1418/1506 6000 RA BKN030 TEMPO 1423/1503 4000 SHRA FEW017CB

Orai ataskaitas ir orų prognozės (METAR, TAF).

turimą stotys yra geltonos ir raudonos taškus žemėlapyje.

Perkelti pele per norėdami pamatyti stoties vardą.

Tada spustelėkite, norėdami matyti oro stebėjimo ir prognozės.

Norėdami pakeisti žemėlapį: spustelėkite ant žalios mygtukų su juodo kryžiaus žemyn,; žalią mygtuką su brūkšneliu, jei norite nutolinti; arba žalių rodyklių gretimoms žemėlapius.


METAR-TAF: